sensor_id;sensor_type;location;lat;lon;timestamp;temperature;humidity
57390;DHT22;43217;52.694;6.214;2023-07-30T00:01:43;15.70;99.90
57390;DHT22;43217;52.694;6.214;2023-07-30T00:04:08;15.80;99.90
57390;DHT22;43217;52.694;6.214;2023-07-30T00:06:34;15.70;99.90
57390;DHT22;43217;52.694;6.214;2023-07-30T00:08:59;15.70;99.90
57390;DHT22;43217;52.694;6.214;2023-07-30T00:11:25;15.70;99.90
57390;DHT22;43217;52.694;6.214;2023-07-30T00:13:51;15.70;99.90
57390;DHT22;43217;52.694;6.214;2023-07-30T00:16:16;15.70;99.90
57390;DHT22;43217;52.694;6.214;2023-07-30T00:18:42;15.70;99.90
57390;DHT22;43217;52.694;6.214;2023-07-30T00:21:08;15.70;99.90
57390;DHT22;43217;52.694;6.214;2023-07-30T00:23:33;15.70;99.90
57390;DHT22;43217;52.694;6.214;2023-07-30T00:25:59;15.60;99.90
57390;DHT22;43217;52.694;6.214;2023-07-30T00:28:24;15.60;99.90
57390;DHT22;43217;52.694;6.214;2023-07-30T00:30:50;15.50;99.90
57390;DHT22;43217;52.694;6.214;2023-07-30T00:33:16;15.50;99.90
57390;DHT22;43217;52.694;6.214;2023-07-30T00:35:41;15.50;99.90
57390;DHT22;43217;52.694;6.214;2023-07-30T00:38:07;15.40;99.90
57390;DHT22;43217;52.694;6.214;2023-07-30T00:40:32;15.40;99.90
57390;DHT22;43217;52.694;6.214;2023-07-30T00:42:58;15.40;99.90
57390;DHT22;43217;52.694;6.214;2023-07-30T00:45:24;15.40;99.90
57390;DHT22;43217;52.694;6.214;2023-07-30T00:47:49;15.40;99.90
57390;DHT22;43217;52.694;6.214;2023-07-30T00:50:16;15.40;99.90
57390;DHT22;43217;52.694;6.214;2023-07-30T00:52:43;15.30;99.90
57390;DHT22;43217;52.694;6.214;2023-07-30T00:55:09;15.30;99.90
57390;DHT22;43217;52.694;6.214;2023-07-30T00:57:36;15.30;99.90
57390;DHT22;43217;52.694;6.214;2023-07-30T01:00:03;15.30;99.90
57390;DHT22;43217;52.694;6.214;2023-07-30T01:02:31;15.30;99.90
57390;DHT22;43217;52.694;6.214;2023-07-30T01:04:57;15.30;99.90
57390;DHT22;43217;52.694;6.214;2023-07-30T01:07:25;15.20;99.90
57390;DHT22;43217;52.694;6.214;2023-07-30T01:09:51;15.20;99.90
57390;DHT22;43217;52.694;6.214;2023-07-30T01:12:17;15.30;99.90
57390;DHT22;43217;52.694;6.214;2023-07-30T01:14:45;15.30;99.90
57390;DHT22;43217;52.694;6.214;2023-07-30T01:17:11;15.20;99.90
57390;DHT22;43217;52.694;6.214;2023-07-30T01:19:37;15.20;99.90
57390;DHT22;43217;52.694;6.214;2023-07-30T01:22:03;15.20;99.90
57390;DHT22;43217;52.694;6.214;2023-07-30T01:24:29;15.20;99.90
57390;DHT22;43217;52.694;6.214;2023-07-30T01:27:25;15.10;99.90
57390;DHT22;43217;52.694;6.214;2023-07-30T01:29:55;15.10;99.90
57390;DHT22;43217;52.694;6.214;2023-07-30T01:32:26;15.10;99.90
57390;DHT22;43217;52.694;6.214;2023-07-30T01:34:54;15.10;99.90
57390;DHT22;43217;52.694;6.214;2023-07-30T01:37:20;15.00;99.90
57390;DHT22;43217;52.694;6.214;2023-07-30T01:39:47;15.00;99.90
57390;DHT22;43217;52.694;6.214;2023-07-30T01:42:14;15.00;99.90
57390;DHT22;43217;52.694;6.214;2023-07-30T01:44:40;15.00;99.90
57390;DHT22;43217;52.694;6.214;2023-07-30T01:47:05;15.00;99.90
57390;DHT22;43217;52.694;6.214;2023-07-30T01:49:31;15.00;99.90
57390;DHT22;43217;52.694;6.214;2023-07-30T01:51:57;15.00;99.90
57390;DHT22;43217;52.694;6.214;2023-07-30T01:54:22;15.00;99.90
57390;DHT22;43217;52.694;6.214;2023-07-30T01:56:48;15.00;99.90
57390;DHT22;43217;52.694;6.214;2023-07-30T01:59:14;15.00;99.90
57390;DHT22;43217;52.694;6.214;2023-07-30T02:01:41;15.00;99.90
57390;DHT22;43217;52.694;6.214;2023-07-30T02:04:06;14.90;99.90
57390;DHT22;43217;52.694;6.214;2023-07-30T02:06:32;15.00;99.90
57390;DHT22;43217;52.694;6.214;2023-07-30T02:08:58;15.00;99.90
57390;DHT22;43217;52.694;6.214;2023-07-30T02:11:23;15.00;99.90
57390;DHT22;43217;52.694;6.214;2023-07-30T02:13:49;15.00;99.90
57390;DHT22;43217;52.694;6.214;2023-07-30T02:16:15;15.00;99.90
57390;DHT22;43217;52.694;6.214;2023-07-30T02:18:40;15.10;99.90
57390;DHT22;43217;52.694;6.214;2023-07-30T02:21:06;15.10;99.90
57390;DHT22;43217;52.694;6.214;2023-07-30T02:23:32;15.10;99.90
57390;DHT22;43217;52.694;6.214;2023-07-30T02:25:57;15.10;99.90
57390;DHT22;43217;52.694;6.214;2023-07-30T02:28:23;15.10;99.90
57390;DHT22;43217;52.694;6.214;2023-07-30T02:30:48;15.20;99.90
57390;DHT22;43217;52.694;6.214;2023-07-30T02:33:14;15.20;99.90
57390;DHT22;43217;52.694;6.214;2023-07-30T02:35:40;15.20;99.90
57390;DHT22;43217;52.694;6.214;2023-07-30T02:38:05;15.20;99.90
57390;DHT22;43217;52.694;6.214;2023-07-30T02:40:31;15.20;99.90
57390;DHT22;43217;52.694;6.214;2023-07-30T02:42:57;15.20;99.90
57390;DHT22;43217;52.694;6.214;2023-07-30T02:45:23;15.20;99.90
57390;DHT22;43217;52.694;6.214;2023-07-30T02:47:48;15.20;99.90
57390;DHT22;43217;52.694;6.214;2023-07-30T02:50:14;15.20;99.90
57390;DHT22;43217;52.694;6.214;2023-07-30T02:52:39;15.30;99.90
57390;DHT22;43217;52.694;6.214;2023-07-30T02:55:07;15.30;99.90
57390;DHT22;43217;52.694;6.214;2023-07-30T02:57:32;15.30;99.90
57390;DHT22;43217;52.694;6.214;2023-07-30T03:00:00;15.30;99.90
57390;DHT22;43217;52.694;6.214;2023-07-30T03:02:26;15.30;99.90
57390;DHT22;43217;52.694;6.214;2023-07-30T03:04:51;15.20;99.90
57390;DHT22;43217;52.694;6.214;2023-07-30T03:07:17;15.20;99.90
57390;DHT22;43217;52.694;6.214;2023-07-30T03:09:44;15.30;99.90
57390;DHT22;43217;52.694;6.214;2023-07-30T03:12:09;15.20;99.90
57390;DHT22;43217;52.694;6.214;2023-07-30T03:14:35;15.30;99.90
57390;DHT22;43217;52.694;6.214;2023-07-30T03:17:00;15.20;99.90
57390;DHT22;43217;52.694;6.214;2023-07-30T03:19:26;15.20;99.90
57390;DHT22;43217;52.694;6.214;2023-07-30T03:21:52;15.20;99.90
57390;DHT22;43217;52.694;6.214;2023-07-30T03:24:17;15.30;99.90
57390;DHT22;43217;52.694;6.214;2023-07-30T03:26:43;15.20;99.90
57390;DHT22;43217;52.694;6.214;2023-07-30T03:29:08;15.20;99.90
57390;DHT22;43217;52.694;6.214;2023-07-30T03:31:34;15.20;99.90
57390;DHT22;43217;52.694;6.214;2023-07-30T03:34:00;15.20;99.90
57390;DHT22;43217;52.694;6.214;2023-07-30T03:36:25;15.20;99.90
57390;DHT22;43217;52.694;6.214;2023-07-30T03:38:51;15.20;99.90
57390;DHT22;43217;52.694;6.214;2023-07-30T03:41:17;15.20;99.90
57390;DHT22;43217;52.694;6.214;2023-07-30T03:43:42;15.20;99.90
57390;DHT22;43217;52.694;6.214;2023-07-30T03:46:08;15.20;99.90
57390;DHT22;43217;52.694;6.214;2023-07-30T03:48:33;15.10;99.90
57390;DHT22;43217;52.694;6.214;2023-07-30T03:50:59;15.10;99.90
57390;DHT22;43217;52.694;6.214;2023-07-30T03:53:25;15.10;99.90
57390;DHT22;43217;52.694;6.214;2023-07-30T03:55:50;15.10;99.90
57390;DHT22;43217;52.694;6.214;2023-07-30T03:58:16;15.10;99.90
57390;DHT22;43217;52.694;6.214;2023-07-30T04:00:41;15.00;99.90
57390;DHT22;43217;52.694;6.214;2023-07-30T04:03:07;15.00;99.90
57390;DHT22;43217;52.694;6.214;2023-07-30T04:05:33;14.90;99.90
57390;DHT22;43217;52.694;6.214;2023-07-30T04:07:58;15.00;99.90
57390;DHT22;43217;52.694;6.214;2023-07-30T04:10:24;14.90;99.90
57390;DHT22;43217;52.694;6.214;2023-07-30T04:12:50;15.00;99.90
57390;DHT22;43217;52.694;6.214;2023-07-30T04:15:16;14.90;99.90
57390;DHT22;43217;52.694;6.214;2023-07-30T04:17:42;15.00;99.90
57390;DHT22;43217;52.694;6.214;2023-07-30T04:20:10;14.90;99.90
57390;DHT22;43217;52.694;6.214;2023-07-30T04:22:36;15.00;99.90
57390;DHT22;43217;52.694;6.214;2023-07-30T04:25:02;15.00;99.90
57390;DHT22;43217;52.694;6.214;2023-07-30T04:27:28;15.00;99.90
57390;DHT22;43217;52.694;6.214;2023-07-30T04:29:54;15.00;99.90
57390;DHT22;43217;52.694;6.214;2023-07-30T04:32:21;15.00;99.90
57390;DHT22;43217;52.694;6.214;2023-07-30T04:34:46;15.10;99.90
57390;DHT22;43217;52.694;6.214;2023-07-30T04:37:12;15.10;99.90
57390;DHT22;43217;52.694;6.214;2023-07-30T04:39:38;15.10;99.90
57390;DHT22;43217;52.694;6.214;2023-07-30T04:42:03;15.10;99.90
57390;DHT22;43217;52.694;6.214;2023-07-30T04:44:29;15.10;99.90
57390;DHT22;43217;52.694;6.214;2023-07-30T04:46:55;15.20;99.90
57390;DHT22;43217;52.694;6.214;2023-07-30T04:49:21;15.20;99.90
57390;DHT22;43217;52.694;6.214;2023-07-30T04:51:46;15.30;99.90
57390;DHT22;43217;52.694;6.214;2023-07-30T04:54:12;15.30;99.90
57390;DHT22;43217;52.694;6.214;2023-07-30T04:56:37;15.40;99.90
57390;DHT22;43217;52.694;6.214;2023-07-30T04:59:03;15.40;99.90
57390;DHT22;43217;52.694;6.214;2023-07-30T05:01:29;15.40;99.90
57390;DHT22;43217;52.694;6.214;2023-07-30T05:03:55;15.50;99.90
57390;DHT22;43217;52.694;6.214;2023-07-30T05:06:21;15.50;99.90
57390;DHT22;43217;52.694;6.214;2023-07-30T05:08:47;15.50;99.90
57390;DHT22;43217;52.694;6.214;2023-07-30T05:11:13;15.50;99.90
57390;DHT22;43217;52.694;6.214;2023-07-30T05:13:38;15.60;99.90
57390;DHT22;43217;52.694;6.214;2023-07-30T05:16:04;15.60;99.90
57390;DHT22;43217;52.694;6.214;2023-07-30T05:18:29;15.70;99.90
57390;DHT22;43217;52.694;6.214;2023-07-30T05:20:55;15.70;99.90
57390;DHT22;43217;52.694;6.214;2023-07-30T05:23:21;15.80;99.90
57390;DHT22;43217;52.694;6.214;2023-07-30T05:25:47;15.80;99.90
57390;DHT22;43217;52.694;6.214;2023-07-30T05:28:13;15.80;99.90
57390;DHT22;43217;52.694;6.214;2023-07-30T05:30:39;15.90;99.90
57390;DHT22;43217;52.694;6.214;2023-07-30T05:33:04;15.90;99.90
57390;DHT22;43217;52.694;6.214;2023-07-30T05:35:30;16.00;99.90
57390;DHT22;43217;52.694;6.214;2023-07-30T05:37:56;16.00;99.90
57390;DHT22;43217;52.694;6.214;2023-07-30T05:40:22;16.00;99.90
57390;DHT22;43217;52.694;6.214;2023-07-30T05:42:48;16.00;99.90
57390;DHT22;43217;52.694;6.214;2023-07-30T05:45:14;16.10;99.90
57390;DHT22;43217;52.694;6.214;2023-07-30T05:47:39;16.10;99.90
57390;DHT22;43217;52.694;6.214;2023-07-30T05:50:06;16.20;99.90
57390;DHT22;43217;52.694;6.214;2023-07-30T05:52:33;16.20;99.90
57390;DHT22;43217;52.694;6.214;2023-07-30T05:54:58;16.30;99.90
57390;DHT22;43217;52.694;6.214;2023-07-30T05:57:27;16.30;99.90
57390;DHT22;43217;52.694;6.214;2023-07-30T05:59:52;16.30;99.90
57390;DHT22;43217;52.694;6.214;2023-07-30T06:02:18;16.30;99.90
57390;DHT22;43217;52.694;6.214;2023-07-30T06:04:44;16.30;99.90
57390;DHT22;43217;52.694;6.214;2023-07-30T06:07:10;16.40;99.90
57390;DHT22;43217;52.694;6.214;2023-07-30T06:09:36;16.40;99.90
57390;DHT22;43217;52.694;6.214;2023-07-30T06:12:02;16.40;99.90
57390;DHT22;43217;52.694;6.214;2023-07-30T06:14:28;16.50;99.90
57390;DHT22;43217;52.694;6.214;2023-07-30T06:16:54;16.50;99.90
57390;DHT22;43217;52.694;6.214;2023-07-30T06:19:19;16.60;99.90
57390;DHT22;43217;52.694;6.214;2023-07-30T06:21:45;16.70;99.90
57390;DHT22;43217;52.694;6.214;2023-07-30T06:24:11;16.80;99.90
57390;DHT22;43217;52.694;6.214;2023-07-30T06:26:36;16.90;99.90
57390;DHT22;43217;52.694;6.214;2023-07-30T06:29:02;17.00;99.90
57390;DHT22;43217;52.694;6.214;2023-07-30T06:31:28;17.10;99.90
57390;DHT22;43217;52.694;6.214;2023-07-30T06:33:54;17.20;99.90
57390;DHT22;43217;52.694;6.214;2023-07-30T06:36:19;17.30;99.90
57390;DHT22;43217;52.694;6.214;2023-07-30T06:38:45;17.40;99.90
57390;DHT22;43217;52.694;6.214;2023-07-30T06:41:11;17.50;99.90
57390;DHT22;43217;52.694;6.214;2023-07-30T06:43:36;17.60;99.90
57390;DHT22;43217;52.694;6.214;2023-07-30T06:46:02;17.70;99.90
57390;DHT22;43217;52.694;6.214;2023-07-30T06:48:28;17.90;99.90
57390;DHT22;43217;52.694;6.214;2023-07-30T06:50:53;18.10;99.90
57390;DHT22;43217;52.694;6.214;2023-07-30T06:53:19;18.10;99.90
57390;DHT22;43217;52.694;6.214;2023-07-30T06:55:45;18.20;99.90
57390;DHT22;43217;52.694;6.214;2023-07-30T06:58:11;18.30;99.90
57390;DHT22;43217;52.694;6.214;2023-07-30T07:00:36;18.50;99.90
57390;DHT22;43217;52.694;6.214;2023-07-30T07:03:02;18.60;99.90
57390;DHT22;43217;52.694;6.214;2023-07-30T07:05:29;18.70;99.90
57390;DHT22;43217;52.694;6.214;2023-07-30T07:07:54;18.70;99.90
57390;DHT22;43217;52.694;6.214;2023-07-30T07:10:20;18.80;99.90
57390;DHT22;43217;52.694;6.214;2023-07-30T07:12:46;18.70;99.90
57390;DHT22;43217;52.694;6.214;2023-07-30T07:15:12;18.80;99.90
57390;DHT22;43217;52.694;6.214;2023-07-30T07:17:38;18.90;99.90
57390;DHT22;43217;52.694;6.214;2023-07-30T07:20:04;19.30;99.90
57390;DHT22;43217;52.694;6.214;2023-07-30T07:22:32;19.60;99.90
57390;DHT22;43217;52.694;6.214;2023-07-30T07:24:58;19.90;99.90
57390;DHT22;43217;52.694;6.214;2023-07-30T07:27:24;20.00;99.90
57390;DHT22;43217;52.694;6.214;2023-07-30T07:29:51;20.30;99.90
57390;DHT22;43217;52.694;6.214;2023-07-30T07:32:18;20.60;99.90
57390;DHT22;43217;52.694;6.214;2023-07-30T07:34:47;20.40;99.90
57390;DHT22;43217;52.694;6.214;2023-07-30T07:37:14;20.10;99.90
57390;DHT22;43217;52.694;6.214;2023-07-30T07:39:41;20.20;99.90
57390;DHT22;43217;52.694;6.214;2023-07-30T07:42:07;20.90;99.90
57390;DHT22;43217;52.694;6.214;2023-07-30T07:44:33;21.70;99.90
57390;DHT22;43217;52.694;6.214;2023-07-30T07:46:58;22.40;99.90
57390;DHT22;43217;52.694;6.214;2023-07-30T07:49:24;22.80;99.90
57390;DHT22;43217;52.694;6.214;2023-07-30T07:51:49;23.30;99.90
57390;DHT22;43217;52.694;6.214;2023-07-30T07:54:15;23.70;99.90
57390;DHT22;43217;52.694;6.214;2023-07-30T07:56:41;23.30;99.90
57390;DHT22;43217;52.694;6.214;2023-07-30T07:59:07;23.20;99.90
57390;DHT22;43217;52.694;6.214;2023-07-30T08:01:32;23.60;99.90
57390;DHT22;43217;52.694;6.214;2023-07-30T08:03:58;23.90;99.90
57390;DHT22;43217;52.694;6.214;2023-07-30T08:06:24;24.60;99.90
57390;DHT22;43217;52.694;6.214;2023-07-30T08:08:50;24.80;99.90
57390;DHT22;43217;52.694;6.214;2023-07-30T08:11:15;24.80;99.90
57390;DHT22;43217;52.694;6.214;2023-07-30T08:13:41;24.60;99.90
57390;DHT22;43217;52.694;6.214;2023-07-30T08:16:07;24.70;99.90
57390;DHT22;43217;52.694;6.214;2023-07-30T08:18:33;24.90;99.90
57390;DHT22;43217;52.694;6.214;2023-07-30T08:21:00;25.20;99.90
57390;DHT22;43217;52.694;6.214;2023-07-30T08:23:25;25.10;99.90
57390;DHT22;43217;52.694;6.214;2023-07-30T08:25:51;24.60;99.90
57390;DHT22;43217;52.694;6.214;2023-07-30T08:28:17;23.90;99.90
57390;DHT22;43217;52.694;6.214;2023-07-30T08:30:43;23.40;99.90
57390;DHT22;43217;52.694;6.214;2023-07-30T08:33:08;22.90;99.90
57390;DHT22;43217;52.694;6.214;2023-07-30T08:35:34;22.60;99.90
57390;DHT22;43217;52.694;6.214;2023-07-30T08:37:59;22.10;99.90
57390;DHT22;43217;52.694;6.214;2023-07-30T08:40:25;21.80;99.90
57390;DHT22;43217;52.694;6.214;2023-07-30T08:42:52;21.70;99.90
57390;DHT22;43217;52.694;6.214;2023-07-30T08:45:18;21.80;99.90
57390;DHT22;43217;52.694;6.214;2023-07-30T08:47:45;21.80;99.90
57390;DHT22;43217;52.694;6.214;2023-07-30T08:50:10;21.70;99.90
57390;DHT22;43217;52.694;6.214;2023-07-30T08:52:37;21.50;99.90
57390;DHT22;43217;52.694;6.214;2023-07-30T08:55:03;21.40;99.90
57390;DHT22;43217;52.694;6.214;2023-07-30T08:57:30;21.40;99.90
57390;DHT22;43217;52.694;6.214;2023-07-30T09:00:06;21.30;99.90
57390;DHT22;43217;52.694;6.214;2023-07-30T09:02:40;21.20;99.90
57390;DHT22;43217;52.694;6.214;2023-07-30T09:05:07;21.10;99.90
57390;DHT22;43217;52.694;6.214;2023-07-30T09:07:33;21.00;99.90
57390;DHT22;43217;52.694;6.214;2023-07-30T09:09:58;21.00;99.90
57390;DHT22;43217;52.694;6.214;2023-07-30T09:12:35;20.80;99.90
57390;DHT22;43217;52.694;6.214;2023-07-30T09:15:05;20.90;99.90
57390;DHT22;43217;52.694;6.214;2023-07-30T09:17:31;21.20;99.90
57390;DHT22;43217;52.694;6.214;2023-07-30T09:19:59;21.30;99.90
57390;DHT22;43217;52.694;6.214;2023-07-30T09:22:26;21.20;99.90
57390;DHT22;43217;52.694;6.214;2023-07-30T09:24:55;21.00;99.90
57390;DHT22;43217;52.694;6.214;2023-07-30T09:27:22;20.80;99.90
57390;DHT22;43217;52.694;6.214;2023-07-30T09:29:52;20.60;99.90
57390;DHT22;43217;52.694;6.214;2023-07-30T09:32:19;20.30;99.90
57390;DHT22;43217;52.694;6.214;2023-07-30T09:34:45;20.10;99.90
57390;DHT22;43217;52.694;6.214;2023-07-30T09:37:12;20.10;99.90
57390;DHT22;43217;52.694;6.214;2023-07-30T09:39:43;20.00;99.90
57390;DHT22;43217;52.694;6.214;2023-07-30T09:42:09;19.80;99.90
57390;DHT22;43217;52.694;6.214;2023-07-30T09:44:37;19.60;99.90
57390;DHT22;43217;52.694;6.214;2023-07-30T09:47:03;19.30;99.90
57390;DHT22;43217;52.694;6.214;2023-07-30T09:49:30;19.00;99.90
57390;DHT22;43217;52.694;6.214;2023-07-30T09:52:00;18.80;99.90
57390;DHT22;43217;52.694;6.214;2023-07-30T09:54:27;18.60;99.90
57390;DHT22;43217;52.694;6.214;2023-07-30T09:56:52;18.60;99.90
57390;DHT22;43217;52.694;6.214;2023-07-30T09:59:19;18.60;99.90
57390;DHT22;43217;52.694;6.214;2023-07-30T10:01:47;18.60;99.90
57390;DHT22;43217;52.694;6.214;2023-07-30T10:04:20;18.70;99.90
57390;DHT22;43217;52.694;6.214;2023-07-30T10:09:17;19.00;99.90
57390;DHT22;43217;52.694;6.214;2023-07-30T10:11:45;19.10;99.90
57390;DHT22;43217;52.694;6.214;2023-07-30T10:14:13;19.10;99.90
57390;DHT22;43217;52.694;6.214;2023-07-30T10:16:44;19.20;99.90
57390;DHT22;43217;52.694;6.214;2023-07-30T10:19:15;19.40;99.90
57390;DHT22;43217;52.694;6.214;2023-07-30T10:21:42;19.60;99.90
57390;DHT22;43217;52.694;6.214;2023-07-30T10:24:08;19.70;99.90
57390;DHT22;43217;52.694;6.214;2023-07-30T10:26:35;20.00;99.90
57390;DHT22;43217;52.694;6.214;2023-07-30T10:29:21;20.30;99.90
57390;DHT22;43217;52.694;6.214;2023-07-30T10:31:55;20.70;99.90
57390;DHT22;43217;52.694;6.214;2023-07-30T10:34:26;20.90;99.90
57390;DHT22;43217;52.694;6.214;2023-07-30T10:36:55;21.10;99.90
57390;DHT22;43217;52.694;6.214;2023-07-30T10:39:28;21.30;99.90
57390;DHT22;43217;52.694;6.214;2023-07-30T10:41:57;21.40;99.90
57390;DHT22;43217;52.694;6.214;2023-07-30T10:44:25;21.50;99.90
57390;DHT22;43217;52.694;6.214;2023-07-30T10:46:55;21.50;99.90
57390;DHT22;43217;52.694;6.214;2023-07-30T10:49:21;21.60;99.90
57390;DHT22;43217;52.694;6.214;2023-07-30T10:51:48;21.60;99.90
57390;DHT22;43217;52.694;6.214;2023-07-30T10:54:14;21.70;99.90
57390;DHT22;43217;52.694;6.214;2023-07-30T10:56:42;21.70;99.90
57390;DHT22;43217;52.694;6.214;2023-07-30T10:59:10;21.80;99.90
57390;DHT22;43217;52.694;6.214;2023-07-30T11:01:38;21.90;99.90
57390;DHT22;43217;52.694;6.214;2023-07-30T11:04:19;21.90;99.90
57390;DHT22;43217;52.694;6.214;2023-07-30T11:06:51;21.80;99.90
57390;DHT22;43217;52.694;6.214;2023-07-30T11:09:26;21.80;99.90
57390;DHT22;43217;52.694;6.214;2023-07-30T11:11:55;21.90;99.90
57390;DHT22;43217;52.694;6.214;2023-07-30T11:14:23;22.10;99.90
57390;DHT22;43217;52.694;6.214;2023-07-30T11:16:59;22.30;99.90
57390;DHT22;43217;52.694;6.214;2023-07-30T11:19:28;22.40;99.90
57390;DHT22;43217;52.694;6.214;2023-07-30T11:21:56;22.50;99.90
57390;DHT22;43217;52.694;6.214;2023-07-30T11:24:22;22.60;99.90
57390;DHT22;43217;52.694;6.214;2023-07-30T11:27:01;22.60;99.90
57390;DHT22;43217;52.694;6.214;2023-07-30T11:29:28;22.50;99.90
57390;DHT22;43217;52.694;6.214;2023-07-30T11:31:57;22.40;99.90
57390;DHT22;43217;52.694;6.214;2023-07-30T11:34:26;22.40;99.90
57390;DHT22;43217;52.694;6.214;2023-07-30T11:36:53;22.20;99.90
57390;DHT22;43217;52.694;6.214;2023-07-30T11:39:19;22.00;99.90
57390;DHT22;43217;52.694;6.214;2023-07-30T11:41:45;22.10;99.90
57390;DHT22;43217;52.694;6.214;2023-07-30T11:44:30;22.20;99.90
57390;DHT22;43217;52.694;6.214;2023-07-30T11:46:56;22.30;99.90
57390;DHT22;43217;52.694;6.214;2023-07-30T11:49:22;22.40;99.90
57390;DHT22;43217;52.694;6.214;2023-07-30T11:51:47;22.50;99.90
57390;DHT22;43217;52.694;6.214;2023-07-30T11:54:21;22.60;99.90
57390;DHT22;43217;52.694;6.214;2023-07-30T11:56:56;22.70;99.90
57390;DHT22;43217;52.694;6.214;2023-07-30T11:59:22;22.70;99.90
57390;DHT22;43217;52.694;6.214;2023-07-30T12:01:48;22.60;99.90
57390;DHT22;43217;52.694;6.214;2023-07-30T12:04:13;22.50;99.90
57390;DHT22;43217;52.694;6.214;2023-07-30T12:06:47;22.30;99.90
57390;DHT22;43217;52.694;6.214;2023-07-30T12:09:19;22.30;99.90
57390;DHT22;43217;52.694;6.214;2023-07-30T12:12:00;22.20;99.90
57390;DHT22;43217;52.694;6.214;2023-07-30T12:17:11;22.20;99.90
57390;DHT22;43217;52.694;6.214;2023-07-30T12:19:37;22.20;99.90
57390;DHT22;43217;52.694;6.214;2023-07-30T12:22:03;22.30;99.90
57390;DHT22;43217;52.694;6.214;2023-07-30T12:24:29;22.30;99.90
57390;DHT22;43217;52.694;6.214;2023-07-30T12:26:55;22.30;99.90
57390;DHT22;43217;52.694;6.214;2023-07-30T12:29:21;22.30;99.90
57390;DHT22;43217;52.694;6.214;2023-07-30T12:31:47;22.20;99.90
57390;DHT22;43217;52.694;6.214;2023-07-30T12:34:15;22.00;99.90
57390;DHT22;43217;52.694;6.214;2023-07-30T12:36:40;21.90;99.90
57390;DHT22;43217;52.694;6.214;2023-07-30T12:39:06;21.80;99.90
57390;DHT22;43217;52.694;6.214;2023-07-30T12:41:33;21.60;99.90
57390;DHT22;43217;52.694;6.214;2023-07-30T12:43:59;21.40;99.90
57390;DHT22;43217;52.694;6.214;2023-07-30T12:46:27;21.20;99.90
57390;DHT22;43217;52.694;6.214;2023-07-30T12:48:56;21.10;99.90
57390;DHT22;43217;52.694;6.214;2023-07-30T12:51:22;21.00;99.90
57390;DHT22;43217;52.694;6.214;2023-07-30T12:53:47;20.90;99.90
57390;DHT22;43217;52.694;6.214;2023-07-30T12:56:13;20.70;99.90
57390;DHT22;43217;52.694;6.214;2023-07-30T12:58:40;20.80;99.90
57390;DHT22;43217;52.694;6.214;2023-07-30T13:01:06;21.00;99.90
57390;DHT22;43217;52.694;6.214;2023-07-30T13:03:32;21.20;99.90
57390;DHT22;43217;52.694;6.214;2023-07-30T13:05:58;21.30;99.90
57390;DHT22;43217;52.694;6.214;2023-07-30T13:08:24;21.40;99.90
57390;DHT22;43217;52.694;6.214;2023-07-30T13:10:49;21.50;99.90
57390;DHT22;43217;52.694;6.214;2023-07-30T13:13:16;21.50;99.90
57390;DHT22;43217;52.694;6.214;2023-07-30T13:15:41;21.50;99.90
57390;DHT22;43217;52.694;6.214;2023-07-30T13:18:07;21.70;99.90
57390;DHT22;43217;52.694;6.214;2023-07-30T13:20:33;21.80;99.90
57390;DHT22;43217;52.694;6.214;2023-07-30T13:22:58;21.90;99.90
57390;DHT22;43217;52.694;6.214;2023-07-30T13:25:24;22.00;99.90
57390;DHT22;43217;52.694;6.214;2023-07-30T13:27:50;21.80;99.90
57390;DHT22;43217;52.694;6.214;2023-07-30T13:30:16;21.80;99.90
57390;DHT22;43217;52.694;6.214;2023-07-30T13:32:41;21.80;99.90
57390;DHT22;43217;52.694;6.214;2023-07-30T13:35:07;21.80;99.90
57390;DHT22;43217;52.694;6.214;2023-07-30T13:37:33;21.80;99.90
57390;DHT22;43217;52.694;6.214;2023-07-30T13:39:58;21.80;99.90
57390;DHT22;43217;52.694;6.214;2023-07-30T13:42:24;22.00;99.90
57390;DHT22;43217;52.694;6.214;2023-07-30T13:44:51;22.00;99.90
57390;DHT22;43217;52.694;6.214;2023-07-30T13:47:17;21.90;99.90
57390;DHT22;43217;52.694;6.214;2023-07-30T13:49:42;21.90;99.90
57390;DHT22;43217;52.694;6.214;2023-07-30T13:52:08;21.80;99.90
57390;DHT22;43217;52.694;6.214;2023-07-30T13:54:34;21.70;99.90
57390;DHT22;43217;52.694;6.214;2023-07-30T13:57:02;21.70;99.90
57390;DHT22;43217;52.694;6.214;2023-07-30T13:59:28;21.70;99.90
57390;DHT22;43217;52.694;6.214;2023-07-30T14:01:54;21.60;99.90
57390;DHT22;43217;52.694;6.214;2023-07-30T14:04:19;21.60;99.90
57390;DHT22;43217;52.694;6.214;2023-07-30T14:06:45;21.60;99.90
57390;DHT22;43217;52.694;6.214;2023-07-30T14:09:11;21.70;99.90
57390;DHT22;43217;52.694;6.214;2023-07-30T14:11:36;21.80;99.90
57390;DHT22;43217;52.694;6.214;2023-07-30T14:14:03;21.90;99.90
57390;DHT22;43217;52.694;6.214;2023-07-30T14:16:29;22.00;99.90
57390;DHT22;43217;52.694;6.214;2023-07-30T14:18:54;22.00;99.90
57390;DHT22;43217;52.694;6.214;2023-07-30T14:21:20;21.90;99.90
57390;DHT22;43217;52.694;6.214;2023-07-30T14:23:45;22.00;99.90
57390;DHT22;43217;52.694;6.214;2023-07-30T14:26:11;22.10;99.90
57390;DHT22;43217;52.694;6.214;2023-07-30T14:28:37;22.20;99.90
57390;DHT22;43217;52.694;6.214;2023-07-30T14:31:02;22.20;99.90
57390;DHT22;43217;52.694;6.214;2023-07-30T14:33:28;22.20;99.90
57390;DHT22;43217;52.694;6.214;2023-07-30T14:35:54;22.20;99.90
57390;DHT22;43217;52.694;6.214;2023-07-30T14:38:20;22.20;99.90
57390;DHT22;43217;52.694;6.214;2023-07-30T14:40:46;22.00;99.90
57390;DHT22;43217;52.694;6.214;2023-07-30T14:43:11;22.00;99.90
57390;DHT22;43217;52.694;6.214;2023-07-30T14:45:37;21.90;99.90
57390;DHT22;43217;52.694;6.214;2023-07-30T14:48:03;21.70;99.90
57390;DHT22;43217;52.694;6.214;2023-07-30T14:50:29;21.70;99.90
57390;DHT22;43217;52.694;6.214;2023-07-30T14:52:54;21.70;99.90
57390;DHT22;43217;52.694;6.214;2023-07-30T14:55:20;21.50;99.90
57390;DHT22;43217;52.694;6.214;2023-07-30T14:57:46;21.50;99.90
57390;DHT22;43217;52.694;6.214;2023-07-30T15:00:12;21.50;99.90
57390;DHT22;43217;52.694;6.214;2023-07-30T15:02:39;21.50;99.90
57390;DHT22;43217;52.694;6.214;2023-07-30T15:05:06;21.70;99.90
57390;DHT22;43217;52.694;6.214;2023-07-30T15:07:32;21.80;99.90
57390;DHT22;43217;52.694;6.214;2023-07-30T15:09:58;21.80;99.90
57390;DHT22;43217;52.694;6.214;2023-07-30T15:12:23;21.70;99.90
57390;DHT22;43217;52.694;6.214;2023-07-30T15:14:49;21.60;99.90
57390;DHT22;43217;52.694;6.214;2023-07-30T15:17:14;21.70;99.90
57390;DHT22;43217;52.694;6.214;2023-07-30T15:19:40;21.60;99.90
57390;DHT22;43217;52.694;6.214;2023-07-30T15:22:06;21.70;99.90
57390;DHT22;43217;52.694;6.214;2023-07-30T15:24:32;21.60;99.90
57390;DHT22;43217;52.694;6.214;2023-07-30T15:26:57;21.60;99.90
57390;DHT22;43217;52.694;6.214;2023-07-30T15:29:23;21.60;99.90
57390;DHT22;43217;52.694;6.214;2023-07-30T15:31:50;21.50;99.90